sensor_id;sensor_type;location;lat;lon;timestamp;pressure;altitude;pressure_sealevel;temperature;humidity
59787;BME280;45672;51.612;5.536;2022-11-03T00:02:22;101289.50;;;11.51;78.54
59787;BME280;45672;51.612;5.536;2022-11-03T00:04:48;101291.47;;;11.49;78.89
59787;BME280;45672;51.612;5.536;2022-11-03T00:07:19;101288.81;;;11.49;78.67
59787;BME280;45672;51.612;5.536;2022-11-03T00:09:45;101279.84;;;11.50;78.43
59787;BME280;45672;51.612;5.536;2022-11-03T00:12:10;101275.50;;;11.49;78.73
59787;BME280;45672;51.612;5.536;2022-11-03T00:14:35;101274.81;;;11.47;78.61
59787;BME280;45672;51.612;5.536;2022-11-03T00:17:01;101273.81;;;11.48;78.67
59787;BME280;45672;51.612;5.536;2022-11-03T00:19:26;101273.81;;;11.48;78.69
59787;BME280;45672;51.612;5.536;2022-11-03T00:21:51;101261.66;;;11.46;78.33
59787;BME280;45672;51.612;5.536;2022-11-03T00:24:16;101264.16;;;11.47;78.59
59787;BME280;45672;51.612;5.536;2022-11-03T00:26:42;101260.47;;;11.48;78.61
59787;BME280;45672;51.612;5.536;2022-11-03T00:29:12;101264.00;;;11.49;78.56
59787;BME280;45672;51.612;5.536;2022-11-03T00:31:39;101262.31;;;11.48;78.77
59787;BME280;45672;51.612;5.536;2022-11-03T00:34:06;101250.84;;;11.47;78.49
59787;BME280;45672;51.612;5.536;2022-11-03T00:36:37;101251.50;;;11.49;78.46
59787;BME280;45672;51.612;5.536;2022-11-03T00:39:04;101246.19;;;11.49;78.51
59787;BME280;45672;51.612;5.536;2022-11-03T00:41:30;101245.34;;;11.49;78.59
59787;BME280;45672;51.612;5.536;2022-11-03T00:43:55;101241.81;;;11.48;78.52
59787;BME280;45672;51.612;5.536;2022-11-03T00:46:23;101241.81;;;11.48;78.57
59787;BME280;45672;51.612;5.536;2022-11-03T00:48:48;101233.16;;;11.46;78.69
59787;BME280;45672;51.612;5.536;2022-11-03T00:53:45;101213.53;;;11.47;78.62
59787;BME280;45672;51.612;5.536;2022-11-03T00:58:46;101209.19;;;11.46;78.59
59787;BME280;45672;51.612;5.536;2022-11-03T01:01:15;101203.69;;;11.48;78.92
59787;BME280;45672;51.612;5.536;2022-11-03T01:03:42;101208.19;;;11.47;78.82
59787;BME280;45672;51.612;5.536;2022-11-03T01:06:27;101201.84;;;11.48;78.77
59787;BME280;45672;51.612;5.536;2022-11-03T01:09:11;101193.88;;;11.48;78.86
59787;BME280;45672;51.612;5.536;2022-11-03T01:11:36;101189.53;;;11.47;79.02
59787;BME280;45672;51.612;5.536;2022-11-03T01:14:10;101192.22;;;11.47;78.99
59787;BME280;45672;51.612;5.536;2022-11-03T01:16:35;101181.56;;;11.47;79.13
59787;BME280;45672;51.612;5.536;2022-11-03T01:19:01;101186.56;;;11.50;79.14
59787;BME280;45672;51.612;5.536;2022-11-03T01:21:27;101190.91;;;11.51;79.09
59787;BME280;45672;51.612;5.536;2022-11-03T01:23:52;101186.25;;;11.53;79.03
59787;BME280;45672;51.612;5.536;2022-11-03T01:26:18;101181.63;;;11.55;78.96
59787;BME280;45672;51.612;5.536;2022-11-03T01:28:45;101184.28;;;11.55;78.80
59787;BME280;45672;51.612;5.536;2022-11-03T01:31:13;101168.31;;;11.55;78.84
59787;BME280;45672;51.612;5.536;2022-11-03T01:33:40;101166.31;;;11.58;78.88
59787;BME280;45672;51.612;5.536;2022-11-03T01:36:07;101174.16;;;11.59;78.84
59787;BME280;45672;51.612;5.536;2022-11-03T01:38:33;101169.50;;;11.61;79.01
59787;BME280;45672;51.612;5.536;2022-11-03T01:41:01;101166.69;;;11.63;78.72
59787;BME280;45672;51.612;5.536;2022-11-03T01:43:27;101151.69;;;11.62;78.87
59787;BME280;45672;51.612;5.536;2022-11-03T01:46:11;101153.38;;;11.63;78.88
59787;BME280;45672;51.612;5.536;2022-11-03T01:48:42;101155.03;;;11.64;78.93
59787;BME280;45672;51.612;5.536;2022-11-03T01:51:10;101152.66;;;11.61;79.07
59787;BME280;45672;51.612;5.536;2022-11-03T01:53:40;101147.34;;;11.61;79.31
59787;BME280;45672;51.612;5.536;2022-11-03T01:56:09;101142.16;;;11.59;79.25
59787;BME280;45672;51.612;5.536;2022-11-03T01:58:38;101135.47;;;11.55;79.39
59787;BME280;45672;51.612;5.536;2022-11-03T02:01:05;101136.00;;;11.59;79.50
59787;BME280;45672;51.612;5.536;2022-11-03T02:03:34;101130.38;;;11.62;79.58
59787;BME280;45672;51.612;5.536;2022-11-03T02:06:01;101122.53;;;11.60;79.67
59787;BME280;45672;51.612;5.536;2022-11-03T02:08:33;101125.88;;;11.62;79.46
59787;BME280;45672;51.612;5.536;2022-11-03T02:11:00;101124.88;;;11.63;79.59
59787;BME280;45672;51.612;5.536;2022-11-03T02:13:45;101123.19;;;11.62;79.77
59787;BME280;45672;51.612;5.536;2022-11-03T02:16:11;101115.19;;;11.62;79.88
59787;BME280;45672;51.612;5.536;2022-11-03T02:18:37;101113.41;;;11.63;79.88
59787;BME280;45672;51.612;5.536;2022-11-03T02:21:10;101118.72;;;11.63;80.17
59787;BME280;45672;51.612;5.536;2022-11-03T02:23:43;101102.56;;;11.64;80.28
59787;BME280;45672;51.612;5.536;2022-11-03T02:26:12;101101.41;;;11.67;80.14
59787;BME280;45672;51.612;5.536;2022-11-03T02:28:38;101099.44;;;11.69;79.91
59787;BME280;45672;51.612;5.536;2022-11-03T02:31:17;101099.44;;;11.69;80.08
59787;BME280;45672;51.612;5.536;2022-11-03T02:33:57;101097.16;;;11.74;79.81
59787;BME280;45672;51.612;5.536;2022-11-03T02:36:32;101082.66;;;11.77;79.75
59787;BME280;45672;51.612;5.536;2022-11-03T02:39:37;101076.69;;;11.83;79.62
59787;BME280;45672;51.612;5.536;2022-11-03T02:42:06;101075.69;;;11.84;79.39
59787;BME280;45672;51.612;5.536;2022-11-03T02:44:33;101067.22;;;11.88;79.12
59787;BME280;45672;51.612;5.536;2022-11-03T02:47:02;101068.06;;;11.89;79.32
59787;BME280;45672;51.612;5.536;2022-11-03T02:49:28;101066.22;;;11.89;79.33
59787;BME280;45672;51.612;5.536;2022-11-03T02:52:00;101058.22;;;11.89;79.38
59787;BME280;45672;51.612;5.536;2022-11-03T02:54:30;101059.63;;;11.94;79.53
59787;BME280;45672;51.612;5.536;2022-11-03T02:57:06;101048.94;;;11.94;79.55
59787;BME280;45672;51.612;5.536;2022-11-03T02:59:59;101052.59;;;11.93;79.50
59787;BME280;45672;51.612;5.536;2022-11-03T03:02:34;101043.75;;;11.92;79.82
59787;BME280;45672;51.612;5.536;2022-11-03T03:05:07;101039.13;;;11.94;79.80
59787;BME280;45672;51.612;5.536;2022-11-03T03:07:37;101038.28;;;11.94;79.49
59787;BME280;45672;51.612;5.536;2022-11-03T03:10:07;101040.25;;;11.92;79.95
59787;BME280;45672;51.612;5.536;2022-11-03T03:12:37;101032.41;;;11.90;80.11
59787;BME280;45672;51.612;5.536;2022-11-03T03:15:06;101031.44;;;11.91;80.04
59787;BME280;45672;51.612;5.536;2022-11-03T03:17:44;101028.88;;;11.89;80.25
59787;BME280;45672;51.612;5.536;2022-11-03T03:23:10;101017.25;;;11.90;80.43
59787;BME280;45672;51.612;5.536;2022-11-03T03:25:47;101014.56;;;11.90;80.43
59787;BME280;45672;51.612;5.536;2022-11-03T03:28:17;101012.59;;;11.93;80.62
59787;BME280;45672;51.612;5.536;2022-11-03T03:30:45;101009.94;;;11.93;80.75
59787;BME280;45672;51.612;5.536;2022-11-03T03:33:12;101011.75;;;11.92;80.71
59787;BME280;45672;51.612;5.536;2022-11-03T03:35:41;100986.09;;;11.91;80.71
59787;BME280;45672;51.612;5.536;2022-11-03T03:38:12;101010.75;;;11.93;80.92
59787;BME280;45672;51.612;5.536;2022-11-03T03:40:42;100987.63;;;11.94;81.01
59787;BME280;45672;51.612;5.536;2022-11-03T03:43:10;100997.81;;;11.98;81.21
59787;BME280;45672;51.612;5.536;2022-11-03T03:45:41;100998.66;;;11.99;81.07
59787;BME280;45672;51.612;5.536;2022-11-03T03:48:08;100995.00;;;12.00;81.21
59787;BME280;45672;51.612;5.536;2022-11-03T03:50:36;100983.47;;;11.99;81.09
59787;BME280;45672;51.612;5.536;2022-11-03T03:53:05;100980.66;;;12.01;81.10
59787;BME280;45672;51.612;5.536;2022-11-03T03:55:42;100974.47;;;12.00;81.03
59787;BME280;45672;51.612;5.536;2022-11-03T03:58:11;100977.81;;;12.02;81.01
59787;BME280;45672;51.612;5.536;2022-11-03T04:00:37;100969.16;;;12.00;81.20
59787;BME280;45672;51.612;5.536;2022-11-03T04:03:04;100965.81;;;11.98;81.24
59787;BME280;45672;51.612;5.536;2022-11-03T04:05:29;100964.81;;;11.99;81.49
59787;BME280;45672;51.612;5.536;2022-11-03T04:07:54;100959.63;;;11.98;81.61
59787;BME280;45672;51.612;5.536;2022-11-03T04:10:21;100955.66;;;12.02;81.44
59787;BME280;45672;51.612;5.536;2022-11-03T04:12:47;100947.28;;;11.97;81.64
59787;BME280;45672;51.612;5.536;2022-11-03T04:15:31;100957.66;;;12.00;81.82
59787;BME280;45672;51.612;5.536;2022-11-03T04:18:17;100961.16;;;12.00;81.93
59787;BME280;45672;51.612;5.536;2022-11-03T04:21:01;100957.81;;;11.98;81.92
59787;BME280;45672;51.612;5.536;2022-11-03T04:23:45;100966.66;;;11.99;82.04
59787;BME280;45672;51.612;5.536;2022-11-03T04:26:13;100960.50;;;11.98;82.33
59787;BME280;45672;51.612;5.536;2022-11-03T04:28:38;100957.97;;;11.97;82.51
59787;BME280;45672;51.612;5.536;2022-11-03T04:31:08;100954.63;;;11.95;82.53
59787;BME280;45672;51.612;5.536;2022-11-03T04:33:34;100950.59;;;11.90;82.57
59787;BME280;45672;51.612;5.536;2022-11-03T04:35:59;100940.47;;;11.94;82.67
59787;BME280;45672;51.612;5.536;2022-11-03T04:38:26;100934.41;;;11.92;82.99
59787;BME280;45672;51.612;5.536;2022-11-03T04:40:57;100939.09;;;11.90;83.24
59787;BME280;45672;51.612;5.536;2022-11-03T04:43:30;100930.25;;;11.89;83.29
59787;BME280;45672;51.612;5.536;2022-11-03T04:45:57;100927.75;;;11.88;83.49
59787;BME280;45672;51.612;5.536;2022-11-03T04:48:23;100936.75;;;11.87;83.57
59787;BME280;45672;51.612;5.536;2022-11-03T04:50:53;100924.41;;;11.86;83.95
59787;BME280;45672;51.612;5.536;2022-11-03T04:53:22;100922.56;;;11.86;84.06
59787;BME280;45672;51.612;5.536;2022-11-03T04:55:52;100926.91;;;11.87;84.08
59787;BME280;45672;51.612;5.536;2022-11-03T04:58:23;100926.75;;;11.89;84.19
59787;BME280;45672;51.612;5.536;2022-11-03T05:00:52;100913.41;;;11.89;84.48
59787;BME280;45672;51.612;5.536;2022-11-03T05:03:23;100919.56;;;11.89;84.71
59787;BME280;45672;51.612;5.536;2022-11-03T05:05:49;100909.75;;;11.90;84.84
59787;BME280;45672;51.612;5.536;2022-11-03T05:08:18;100895.44;;;11.91;84.70
59787;BME280;45672;51.612;5.536;2022-11-03T05:10:45;100894.59;;;11.90;84.91
59787;BME280;45672;51.612;5.536;2022-11-03T05:13:17;100897.09;;;11.92;84.92
59787;BME280;45672;51.612;5.536;2022-11-03T05:15:45;100893.44;;;11.93;85.12
59787;BME280;45672;51.612;5.536;2022-11-03T05:21:05;100892.78;;;11.91;85.10
59787;BME280;45672;51.612;5.536;2022-11-03T05:23:37;100897.25;;;11.90;85.32
59787;BME280;45672;51.612;5.536;2022-11-03T05:26:04;100885.06;;;11.88;85.65
59787;BME280;45672;51.612;5.536;2022-11-03T05:28:31;100882.56;;;11.86;85.86
59787;BME280;45672;51.612;5.536;2022-11-03T05:30:57;100874.09;;;11.83;86.23
59787;BME280;45672;51.612;5.536;2022-11-03T05:33:32;100867.72;;;11.84;86.31
59787;BME280;45672;51.612;5.536;2022-11-03T05:36:07;100868.75;;;11.83;86.54
59787;BME280;45672;51.612;5.536;2022-11-03T05:38:36;100865.22;;;11.82;86.61
59787;BME280;45672;51.612;5.536;2022-11-03T05:41:02;100861.56;;;11.83;86.92
59787;BME280;45672;51.612;5.536;2022-11-03T05:43:27;100861.41;;;11.85;87.19
59787;BME280;45672;51.612;5.536;2022-11-03T05:45:56;100841.94;;;11.84;86.91
59787;BME280;45672;51.612;5.536;2022-11-03T05:48:30;100850.59;;;11.86;87.12
59787;BME280;45672;51.612;5.536;2022-11-03T05:50:57;100851.59;;;11.85;87.29
59787;BME280;45672;51.612;5.536;2022-11-03T05:53:31;100848.78;;;11.87;87.63
59787;BME280;45672;51.612;5.536;2022-11-03T05:56:03;100839.75;;;11.88;87.71
59787;BME280;45672;51.612;5.536;2022-11-03T06:00:57;100834.25;;;11.89;87.84
59787;BME280;45672;51.612;5.536;2022-11-03T06:03:27;100834.41;;;11.88;87.86
59787;BME280;45672;51.612;5.536;2022-11-03T06:05:54;100831.75;;;11.88;88.25
59787;BME280;45672;51.612;5.536;2022-11-03T06:08:25;100820.28;;;11.87;88.03
59787;BME280;45672;51.612;5.536;2022-11-03T06:10:56;100807.44;;;11.83;88.23
59787;BME280;45672;51.612;5.536;2022-11-03T06:13:26;100816.63;;;11.88;88.66
59787;BME280;45672;51.612;5.536;2022-11-03T06:16:01;100810.25;;;11.89;88.33
59787;BME280;45672;51.612;5.536;2022-11-03T06:18:33;100807.59;;;11.89;88.48
59787;BME280;45672;51.612;5.536;2022-11-03T06:21:13;100808.13;;;11.93;88.32
59787;BME280;45672;51.612;5.536;2022-11-03T06:23:40;100808.97;;;11.94;88.25
59787;BME280;45672;51.612;5.536;2022-11-03T06:26:36;100808.97;;;11.94;88.00
59787;BME280;45672;51.612;5.536;2022-11-03T06:29:01;100807.28;;;11.93;88.30
59787;BME280;45672;51.612;5.536;2022-11-03T06:31:28;100811.63;;;11.94;88.23
59787;BME280;45672;51.612;5.536;2022-11-03T06:33:56;100804.63;;;11.93;88.18
59787;BME280;45672;51.612;5.536;2022-11-03T06:36:25;100795.78;;;11.92;88.25
59787;BME280;45672;51.612;5.536;2022-11-03T06:38:54;100800.13;;;11.93;88.17
59787;BME280;45672;51.612;5.536;2022-11-03T06:41:24;100802.78;;;11.93;88.07
59787;BME280;45672;51.612;5.536;2022-11-03T06:43:49;100797.31;;;11.95;88.22
59787;BME280;45672;51.612;5.536;2022-11-03T06:46:20;100793.66;;;11.96;88.15
59787;BME280;45672;51.612;5.536;2022-11-03T06:48:46;100795.63;;;11.94;87.93
59787;BME280;45672;51.612;5.536;2022-11-03T06:51:21;100791.28;;;11.93;88.22
59787;BME280;45672;51.612;5.536;2022-11-03T06:53:50;100785.97;;;11.93;88.41
59787;BME280;45672;51.612;5.536;2022-11-03T06:56:19;100790.59;;;11.90;88.22
59787;BME280;45672;51.612;5.536;2022-11-03T06:58:46;100781.78;;;11.90;87.91
59787;BME280;45672;51.612;5.536;2022-11-03T07:01:39;100777.28;;;11.90;87.81
59787;BME280;45672;51.612;5.536;2022-11-03T07:04:13;100771.13;;;11.90;87.73
59787;BME280;45672;51.612;5.536;2022-11-03T07:06:41;100781.78;;;11.90;88.14
59787;BME280;45672;51.612;5.536;2022-11-03T07:09:13;100779.94;;;11.90;88.08
59787;BME280;45672;51.612;5.536;2022-11-03T07:11:46;100777.09;;;11.92;87.83
59787;BME280;45672;51.612;5.536;2022-11-03T07:14:34;100775.28;;;11.93;87.69
59787;BME280;45672;51.612;5.536;2022-11-03T07:17:04;100776.97;;;11.94;87.86
59787;BME280;45672;51.612;5.536;2022-11-03T07:19:37;100777.66;;;11.96;87.97
59787;BME280;45672;51.612;5.536;2022-11-03T07:22:24;100764.97;;;11.98;87.67
59787;BME280;45672;51.612;5.536;2022-11-03T07:24:56;100763.00;;;12.00;87.13
59787;BME280;45672;51.612;5.536;2022-11-03T07:29:58;100759.66;;;12.06;87.24
59787;BME280;45672;51.612;5.536;2022-11-03T07:32:32;100757.63;;;12.08;87.11
59787;BME280;45672;51.612;5.536;2022-11-03T07:35:25;100757.50;;;12.10;86.87
59787;BME280;45672;51.612;5.536;2022-11-03T07:37:52;100761.97;;;12.09;87.11
59787;BME280;45672;51.612;5.536;2022-11-03T07:40:22;100746.66;;;12.11;86.88
59787;BME280;45672;51.612;5.536;2022-11-03T07:42:49;100742.16;;;12.12;86.72
59787;BME280;45672;51.612;5.536;2022-11-03T07:47:59;100736.47;;;12.15;86.67
59787;BME280;45672;51.612;5.536;2022-11-03T07:50:30;100730.97;;;12.16;86.60
59787;BME280;45672;51.612;5.536;2022-11-03T07:52:55;100735.31;;;12.17;86.51
59787;BME280;45672;51.612;5.536;2022-11-03T07:55:20;100730.97;;;12.16;86.29
59787;BME280;45672;51.612;5.536;2022-11-03T07:57:45;100741.97;;;12.21;86.21
59787;BME280;45672;51.612;5.536;2022-11-03T08:00:14;100752.13;;;12.26;86.18
59787;BME280;45672;51.612;5.536;2022-11-03T08:02:51;100747.66;;;12.27;86.15
59787;BME280;45672;51.612;5.536;2022-11-03T08:05:19;100746.63;;;12.28;85.92
59787;BME280;45672;51.612;5.536;2022-11-03T08:07:44;100746.47;;;12.29;85.96
59787;BME280;45672;51.612;5.536;2022-11-03T08:10:09;100744.63;;;12.30;85.73
59787;BME280;45672;51.612;5.536;2022-11-03T08:12:35;100742.63;;;12.32;85.64
59787;BME280;45672;51.612;5.536;2022-11-03T08:15:00;100740.63;;;12.34;85.46
59787;BME280;45672;51.612;5.536;2022-11-03T08:17:25;100732.13;;;12.38;85.33
59787;BME280;45672;51.612;5.536;2022-11-03T08:19:51;100720.28;;;12.41;85.24
59787;BME280;45672;51.612;5.536;2022-11-03T08:22:16;100717.44;;;12.43;84.94
59787;BME280;45672;51.612;5.536;2022-11-03T08:24:41;100715.25;;;12.46;84.65
59787;BME280;45672;51.612;5.536;2022-11-03T08:27:07;100703.41;;;12.49;84.78
59787;BME280;45672;51.612;5.536;2022-11-03T08:29:32;100705.72;;;12.52;84.39
59787;BME280;45672;51.612;5.536;2022-11-03T08:31:57;100692.03;;;12.55;84.22
59787;BME280;45672;51.612;5.536;2022-11-03T08:34:22;100684.53;;;12.58;83.87
59787;BME280;45672;51.612;5.536;2022-11-03T08:36:48;100677.84;;;12.63;83.86
59787;BME280;45672;51.612;5.536;2022-11-03T08:39:13;100681.84;;;12.67;83.91
59787;BME280;45672;51.612;5.536;2022-11-03T08:41:38;100675.16;;;12.71;83.60
59787;BME280;45672;51.612;5.536;2022-11-03T08:44:04;100665.78;;;12.75;83.37
59787;BME280;45672;51.612;5.536;2022-11-03T08:46:30;100655.56;;;12.79;83.03
59787;BME280;45672;51.612;5.536;2022-11-03T08:48:55;100641.88;;;12.82;82.80
59787;BME280;45672;51.612;5.536;2022-11-03T08:51:20;100642.38;;;12.85;82.41
59787;BME280;45672;51.612;5.536;2022-11-03T08:53:46;100629.66;;;12.87;82.89
59787;BME280;45672;51.612;5.536;2022-11-03T08:56:15;100621.28;;;12.90;82.56
59787;BME280;45672;51.612;5.536;2022-11-03T08:58:41;100609.44;;;12.93;82.60
59787;BME280;45672;51.612;5.536;2022-11-03T09:01:06;100624.59;;;13.01;82.30
59787;BME280;45672;51.612;5.536;2022-11-03T09:03:32;100616.34;;;13.10;81.76
59787;BME280;45672;51.612;5.536;2022-11-03T09:05:57;100605.59;;;13.19;81.00
59787;BME280;45672;51.612;5.536;2022-11-03T09:08:22;100605.34;;;13.28;81.18
59787;BME280;45672;51.612;5.536;2022-11-03T09:10:47;100600.63;;;13.39;80.42
59787;BME280;45672;51.612;5.536;2022-11-03T09:13:13;100582.69;;;13.48;80.36
59787;BME280;45672;51.612;5.536;2022-11-03T09:15:38;100568.72;;;13.60;79.91
59787;BME280;45672;51.612;5.536;2022-11-03T09:18:03;100560.44;;;13.70;78.96
59787;BME280;45672;51.612;5.536;2022-11-03T09:20:29;100570.50;;;13.83;78.13
59787;BME280;45672;51.612;5.536;2022-11-03T09:22:55;100558.31;;;13.95;77.89
59787;BME280;45672;51.612;5.536;2022-11-03T09:25:20;100550.56;;;14.01;77.35
59787;BME280;45672;51.612;5.536;2022-11-03T09:27:45;100546.31;;;14.06;77.05
59787;BME280;45672;51.612;5.536;2022-11-03T09:30:11;100538.94;;;14.08;76.57
59787;BME280;45672;51.612;5.536;2022-11-03T09:32:37;100528.69;;;14.12;76.40
59787;BME280;45672;51.612;5.536;2022-11-03T09:35:03;100514.31;;;14.13;76.20
59787;BME280;45672;51.612;5.536;2022-11-03T09:37:29;100510.78;;;14.12;75.87
59787;BME280;45672;51.612;5.536;2022-11-03T09:39:54;100510.97;;;14.11;75.94
59787;BME280;45672;51.612;5.536;2022-11-03T09:42:20;100494.09;;;14.10;75.57
59787;BME280;45672;51.612;5.536;2022-11-03T09:44:46;100508.69;;;14.08;75.59
59787;BME280;45672;51.612;5.536;2022-11-03T09:47:22;100494.69;;;14.06;75.98
59787;BME280;45672;51.612;5.536;2022-11-03T09:49:48;100491.34;;;14.04;75.40
59787;BME280;45672;51.612;5.536;2022-11-03T09:52:19;100488.84;;;14.02;75.81
59787;BME280;45672;51.612;5.536;2022-11-03T09:54:45;100476.97;;;14.05;75.21
59787;BME280;45672;51.612;5.536;2022-11-03T09:57:11;100477.78;;;14.05;75.06
59787;BME280;45672;51.612;5.536;2022-11-03T09:59:37;100476.31;;;14.03;74.91
59787;BME280;45672;51.612;5.536;2022-11-03T10:02:30;100469.69;;;13.99;75.39
59787;BME280;45672;51.612;5.536;2022-11-03T10:04:58;100464.88;;;13.94;75.33
59787;BME280;45672;51.612;5.536;2022-11-03T10:07:27;100458.25;;;13.90;75.14
59787;BME280;45672;51.612;5.536;2022-11-03T10:09:55;100445.44;;;13.85;75.26
59787;BME280;45672;51.612;5.536;2022-11-03T10:12:22;100443.03;;;13.90;75.15
59787;BME280;45672;51.612;5.536;2022-11-03T10:14:49;100451.69;;;13.92;75.12
59787;BME280;45672;51.612;5.536;2022-11-03T10:17:17;100436.66;;;13.91;75.63
59787;BME280;45672;51.612;5.536;2022-11-03T10:19:46;100450.22;;;13.90;75.13
59787;BME280;45672;51.612;5.536;2022-11-03T10:22:12;100439.28;;;13.85;75.44
59787;BME280;45672;51.612;5.536;2022-11-03T10:24:37;100428.75;;;13.83;75.67
59787;BME280;45672;51.612;5.536;2022-11-03T10:27:03;100427.28;;;13.81;75.87
59787;BME280;45672;51.612;5.536;2022-11-03T10:29:28;100420.47;;;13.78;75.83
59787;BME280;45672;51.612;5.536;2022-11-03T10:31:56;100421.47;;;13.77;75.87
59787;BME280;45672;51.612;5.536;2022-11-03T10:34:26;100411.81;;;13.76;75.75
59787;BME280;45672;51.612;5.536;2022-11-03T10:37:15;100411.16;;;13.74;75.98
59787;BME280;45672;51.612;5.536;2022-11-03T10:39:42;100403.59;;;13.77;76.08
59787;BME280;45672;51.612;5.536;2022-11-03T10:42:16;100400.06;;;13.77;75.69
59787;BME280;45672;51.612;5.536;2022-11-03T10:44:43;100392.72;;;13.79;75.13
59787;BME280;45672;51.612;5.536;2022-11-03T10:47:41;100390.66;;;13.81;75.43
59787;BME280;45672;51.612;5.536;2022-11-03T10:50:21;100381.72;;;13.89;75.04
59787;BME280;45672;51.612;5.536;2022-11-03T10:52:47;100382.63;;;13.96;74.48
59787;BME280;45672;51.612;5.536;2022-11-03T10:55:13;100380.28;;;14.08;73.74
59787;BME280;45672;51.612;5.536;2022-11-03T10:57:38;100383.91;;;14.22;73.11
59787;BME280;45672;51.612;5.536;2022-11-03T11:00:04;100379.34;;;14.37;72.84
59787;BME280;45672;51.612;5.536;2022-11-03T11:02:31;100381.03;;;14.45;71.75
59787;BME280;45672;51.612;5.536;2022-11-03T11:05:01;100362.56;;;14.50;71.00
59787;BME280;45672;51.612;5.536;2022-11-03T11:07:38;100364.22;;;14.51;71.48
59787;BME280;45672;51.612;5.536;2022-11-03T11:10:06;100361.97;;;14.55;70.76
59787;BME280;45672;51.612;5.536;2022-11-03T11:12:32;100359.75;;;14.58;69.20
59787;BME280;45672;51.612;5.536;2022-11-03T11:14:59;100361.41;;;14.59;69.79
59787;BME280;45672;51.612;5.536;2022-11-03T11:17:46;100359.81;;;14.65;69.66
59787;BME280;45672;51.612;5.536;2022-11-03T11:22:45;100353.53;;;14.79;68.82
59787;BME280;45672;51.612;5.536;2022-11-03T11:25:11;100347.19;;;14.80;68.40
59787;BME280;45672;51.612;5.536;2022-11-03T11:33:11;100332.97;;;14.80;68.71
59787;BME280;45672;51.612;5.536;2022-11-03T11:41:05;100306.19;;;14.80;68.20
59787;BME280;45672;51.612;5.536;2022-11-03T11:43:30;100301.44;;;14.82;68.40
59787;BME280;45672;51.612;5.536;2022-11-03T11:51:26;100276.03;;;15.06;67.14
59787;BME280;45672;51.612;5.536;2022-11-03T11:53:52;100267.78;;;15.01;66.60
59787;BME280;45672;51.612;5.536;2022-11-03T11:56:18;100266.94;;;15.00;67.01
59787;BME280;45672;51.612;5.536;2022-11-03T11:58:48;100257.25;;;14.99;66.55
59787;BME280;45672;51.612;5.536;2022-11-03T12:01:30;100245.50;;;15.00;66.41
59787;BME280;45672;51.612;5.536;2022-11-03T12:06:39;100205.56;;;15.06;66.55
59787;BME280;45672;51.612;5.536;2022-11-03T12:14:20;100193.25;;;15.18;66.84
59787;BME280;45672;51.612;5.536;2022-11-03T12:16:46;100186.63;;;15.21;66.50
59787;BME280;45672;51.612;5.536;2022-11-03T12:19:35;100197.56;;;15.26;66.47
59787;BME280;45672;51.612;5.536;2022-11-03T12:22:02;100191.78;;;15.22;66.12
59787;BME280;45672;51.612;5.536;2022-11-03T12:26:59;100195.50;;;15.28;66.30
59787;BME280;45672;51.612;5.536;2022-11-03T12:29:25;100190.38;;;15.33;66.13
59787;BME280;45672;51.612;5.536;2022-11-03T12:31:50;100186.28;;;15.37;66.11
59787;BME280;45672;51.612;5.536;2022-11-03T12:34:16;100186.69;;;15.41;66.18
59787;BME280;45672;51.612;5.536;2022-11-03T12:36:43;100174.72;;;15.43;65.56
59787;BME280;45672;51.612;5.536;2022-11-03T12:39:08;100170.59;;;15.47;65.06
59787;BME280;45672;51.612;5.536;2022-11-03T12:41:33;100157.00;;;15.49;65.13
59787;BME280;45672;51.612;5.536;2022-11-03T12:43:59;100153.72;;;15.60;65.50
59787;BME280;45672;51.612;5.536;2022-11-03T12:46:24;100155.16;;;15.63;64.78
59787;BME280;45672;51.612;5.536;2022-11-03T12:48:49;100143.81;;;15.61;65.04
59787;BME280;45672;51.612;5.536;2022-11-03T12:51:16;100141.34;;;15.59;64.96
59787;BME280;45672;51.612;5.536;2022-11-03T12:53:42;100138.66;;;15.66;65.09
59787;BME280;45672;51.612;5.536;2022-11-03T12:56:09;100121.31;;;15.68;64.81
59787;BME280;45672;51.612;5.536;2022-11-03T12:58:34;100127.31;;;15.71;65.61
59787;BME280;45672;51.612;5.536;2022-11-03T13:01:00;100115.16;;;15.68;65.08
59787;BME280;45672;51.612;5.536;2022-11-03T13:03:25;100111.22;;;15.64;65.16
59787;BME280;45672;51.612;5.536;2022-11-03T13:05:51;100103.59;;;15.54;65.26
59787;BME280;45672;51.612;5.536;2022-11-03T13:08:16;100099.66;;;15.43;65.43
59787;BME280;45672;51.612;5.536;2022-11-03T13:10:41;100097.19;;;15.28;65.84
59787;BME280;45672;51.612;5.536;2022-11-03T13:13:07;100091.81;;;15.22;66.51
59787;BME280;45672;51.612;5.536;2022-11-03T13:15:32;100090.38;;;15.12;66.49
59787;BME280;45672;51.612;5.536;2022-11-03T13:17:57;100073.03;;;15.08;66.92
59787;BME280;45672;51.612;5.536;2022-11-03T13:20:23;100060.66;;;15.07;67.50
59787;BME280;45672;51.612;5.536;2022-11-03T13:22:48;100060.66;;;15.07;66.80
59787;BME280;45672;51.612;5.536;2022-11-03T13:25:14;100057.78;;;15.09;67.03
59787;BME280;45672;51.612;5.536;2022-11-03T13:27:39;100051.81;;;15.07;67.05
59787;BME280;45672;51.612;5.536;2022-11-03T13:30:05;100050.38;;;15.04;67.33
59787;BME280;45672;51.612;5.536;2022-11-03T13:32:31;100046.84;;;15.10;67.71
59787;BME280;45672;51.612;5.536;2022-11-03T13:34:57;100040.66;;;15.16;67.04
59787;BME280;45672;51.612;5.536;2022-11-03T13:37:22;100031.81;;;15.16;66.76
59787;BME280;45672;51.612;5.536;2022-11-03T13:39:47;100023.38;;;15.12;66.99
59787;BME280;45672;51.612;5.536;2022-11-03T13:42:13;100029.75;;;15.05;67.63
59787;BME280;45672;51.612;5.536;2022-11-03T13:44:38;100025.00;;;15.00;67.76
59787;BME280;45672;51.612;5.536;2022-11-03T13:47:03;100018.63;;;14.94;68.10
59787;BME280;45672;51.612;5.536;2022-11-03T13:49:29;100013.66;;;14.91;68.39